createdAt,value
2017-12-15T00:01:10.775Z,74.10
2017-12-15T00:03:38.266Z,74.30
2017-12-15T00:06:06.558Z,74.10
2017-12-15T00:08:34.063Z,74.10
2017-12-15T00:11:01.555Z,74.20
2017-12-15T00:13:29.841Z,74.50
2017-12-15T00:15:58.111Z,74.80
2017-12-15T00:18:26.384Z,75.10
2017-12-15T00:20:54.636Z,74.90
2017-12-15T00:23:22.164Z,74.90
2017-12-15T00:25:49.676Z,75.00
2017-12-15T00:28:17.948Z,75.20
2017-12-15T00:30:46.212Z,75.00
2017-12-15T00:33:13.756Z,75.00
2017-12-15T00:35:42.015Z,75.00
2017-12-15T00:38:09.501Z,75.00
2017-12-15T00:40:37.784Z,75.10
2017-12-15T00:43:06.038Z,75.20
2017-12-15T00:45:33.571Z,75.10
2017-12-15T00:48:01.094Z,75.00
2017-12-15T00:50:28.614Z,74.90
2017-12-15T00:52:56.130Z,74.70
2017-12-15T00:55:23.629Z,74.50
2017-12-15T00:57:51.148Z,74.60
2017-12-15T01:00:18.648Z,74.70
2017-12-15T01:02:46.158Z,74.80
2017-12-15T01:05:13.659Z,74.60
2017-12-15T01:07:41.178Z,74.70
2017-12-15T01:10:08.671Z,74.80
2017-12-15T01:12:36.169Z,74.90
2017-12-15T01:15:03.685Z,74.90
2017-12-15T01:17:31.184Z,74.70
2017-12-15T01:19:58.709Z,74.30
2017-12-15T01:22:26.205Z,74.30
2017-12-15T01:24:53.700Z,74.40
2017-12-15T01:27:21.219Z,74.60
2017-12-15T01:29:48.728Z,74.40
2017-12-15T01:32:16.254Z,75.00
2017-12-15T01:34:43.744Z,76.00
2017-12-15T01:37:11.277Z,76.50
2017-12-15T01:39:38.764Z,76.80
2017-12-15T01:42:06.244Z,76.80
2017-12-15T01:44:34.520Z,79.80
2017-12-15T01:47:02.780Z,79.80
2017-12-15T01:49:31.051Z,80.10
2017-12-15T01:51:58.544Z,79.70
2017-12-15T01:54:26.080Z,79.90
2017-12-15T01:56:54.404Z,81.20
2017-12-15T01:59:22.036Z,81.00
2017-12-15T02:01:49.520Z,81.30
2017-12-15T02:04:17.012Z,81.00
2017-12-15T02:06:44.528Z,81.20
2017-12-15T02:09:12.029Z,80.60
2017-12-15T02:11:39.549Z,80.60
2017-12-15T02:14:07.054Z,80.70
2017-12-15T02:16:35.313Z,80.80
2017-12-15T02:19:02.820Z,80.70
2017-12-15T02:21:30.312Z,80.00
2017-12-15T02:23:57.816Z,79.80
2017-12-15T02:26:25.312Z,80.00
2017-12-15T02:28:52.868Z,79.90
2017-12-15T02:31:20.372Z,79.10
2017-12-15T02:33:48.676Z,79.10
2017-12-15T02:36:16.176Z,79.10
2017-12-15T02:38:43.671Z,79.40
2017-12-15T02:41:11.941Z,78.80
2017-12-15T02:43:40.189Z,78.10
2017-12-15T02:46:07.717Z,78.00
2017-12-15T02:48:35.254Z,78.50
2017-12-15T02:51:02.743Z,78.60
2017-12-15T02:53:30.265Z,77.90
2017-12-15T02:55:57.763Z,78.60
2017-12-15T02:58:25.280Z,78.80
2017-12-15T03:00:52.776Z,78.30
2017-12-15T03:03:20.289Z,78.60
2017-12-15T03:05:48.578Z,78.90
2017-12-15T03:08:16.066Z,78.90
2017-12-15T03:10:43.580Z,79.20
2017-12-15T03:13:11.088Z,79.00
2017-12-15T03:15:38.596Z,78.70
2017-12-15T03:18:06.151Z,79.30
2017-12-15T03:20:33.643Z,80.00
2017-12-15T03:23:01.189Z,80.10
2017-12-15T03:25:28.696Z,80.20
2017-12-15T03:27:56.221Z,80.40
2017-12-15T03:30:23.710Z,80.40
2017-12-15T03:32:52.023Z,80.80
2017-12-15T03:35:19.523Z,80.60
2017-12-15T03:37:47.032Z,79.90
2017-12-15T03:40:14.547Z,78.50
2017-12-15T03:42:42.033Z,77.90
2017-12-15T03:45:10.313Z,78.10
2017-12-15T03:47:38.588Z,77.90
2017-12-15T03:50:06.847Z,78.00
2017-12-15T03:52:35.146Z,78.60
2017-12-15T03:55:02.641Z,78.50
2017-12-15T03:57:30.216Z,78.30
2017-12-15T03:59:57.728Z,78.60
2017-12-15T04:02:25.225Z,78.90
2017-12-15T04:04:52.736Z,78.50
2017-12-15T04:07:20.221Z,78.80
2017-12-15T04:09:47.743Z,79.10
2017-12-15T04:12:15.235Z,79.40
2017-12-15T04:14:42.755Z,80.20
2017-12-15T04:17:11.016Z,79.90
2017-12-15T04:19:39.280Z,78.60
2017-12-15T04:22:06.795Z,78.50
2017-12-15T04:24:34.312Z,78.50
2017-12-15T04:27:02.588Z,78.30
2017-12-15T04:29:30.875Z,78.00
2017-12-15T04:31:58.371Z,78.00
2017-12-15T04:34:25.904Z,78.10
2017-12-15T04:36:53.401Z,78.00
2017-12-15T04:39:20.895Z,77.50
2017-12-15T04:41:49.181Z,77.30
2017-12-15T04:44:16.684Z,77.30
2017-12-15T04:46:44.215Z,77.50
2017-12-15T04:49:11.749Z,77.40
2017-12-15T04:51:40.007Z,77.00
2017-12-15T04:54:08.285Z,78.20
2017-12-15T04:56:36.546Z,77.30
2017-12-15T04:59:04.064Z,77.30
2017-12-15T05:01:31.548Z,77.60
2017-12-15T05:03:59.089Z,77.70
2017-12-15T05:06:26.572Z,78.10
2017-12-15T05:08:54.064Z,78.70
2017-12-15T05:11:22.352Z,79.10
2017-12-15T05:13:49.848Z,79.10
2017-12-15T05:16:17.369Z,79.40
2017-12-15T05:18:44.860Z,79.50
2017-12-15T05:21:12.354Z,80.30
2017-12-15T05:23:40.640Z,81.80
2017-12-15T05:26:08.892Z,81.70
2017-12-15T05:28:36.411Z,81.70
2017-12-15T05:31:03.901Z,81.80
2017-12-15T05:33:31.424Z,82.60
2017-12-15T05:35:58.928Z,83.10
2017-12-15T05:38:27.215Z,84.10
2017-12-15T05:40:55.505Z,84.00
2017-12-15T05:43:22.999Z,83.90
2017-12-15T05:45:50.516Z,83.80
2017-12-15T05:48:18.005Z,84.10
2017-12-15T05:50:45.532Z,84.20
2017-12-15T05:53:13.016Z,83.70
2017-12-15T05:55:40.524Z,83.80
2017-12-15T05:58:08.805Z,83.70
2017-12-15T06:00:37.063Z,83.50
2017-12-15T06:03:04.601Z,83.50
2017-12-15T06:05:32.094Z,83.40
2017-12-15T06:07:59.643Z,83.50
2017-12-15T06:10:27.938Z,83.20
2017-12-15T06:12:56.203Z,83.20
2017-12-15T06:15:24.523Z,83.00
2017-12-15T06:17:52.012Z,83.00
2017-12-15T06:20:19.493Z,83.00
2017-12-15T06:22:47.777Z,83.40
2017-12-15T06:25:16.057Z,83.30
2017-12-15T06:27:43.580Z,83.20
2017-12-15T06:30:11.084Z,83.10
2017-12-15T06:32:38.611Z,83.30
2017-12-15T06:35:06.094Z,83.10
2017-12-15T06:37:33.617Z,83.00
2017-12-15T06:40:01.141Z,83.10
2017-12-15T06:42:28.650Z,83.20
2017-12-15T06:44:56.205Z,83.00
2017-12-15T06:47:24.470Z,82.70
2017-12-15T06:49:52.004Z,82.60
2017-12-15T06:52:19.530Z,83.70
2017-12-15T06:54:47.028Z,82.50
2017-12-15T06:57:14.545Z,82.40
2017-12-15T06:59:42.037Z,82.20
2017-12-15T07:02:10.316Z,81.20
2017-12-15T07:04:37.816Z,81.20
2017-12-15T07:07:05.341Z,80.70
2017-12-15T07:09:32.908Z,80.70
2017-12-15T07:12:01.171Z,81.30
2017-12-15T07:14:28.688Z,81.30
2017-12-15T07:16:56.177Z,81.10
2017-12-15T07:19:25.213Z,81.20
2017-12-15T07:21:52.700Z,81.90
2017-12-15T07:24:20.188Z,80.80
2017-12-15T07:26:47.708Z,80.70
2017-12-15T07:29:15.199Z,80.10
2017-12-15T07:31:42.717Z,79.50
2017-12-15T07:34:10.211Z,79.50
2017-12-15T07:36:37.703Z,79.50
2017-12-15T07:39:05.212Z,78.90
2017-12-15T07:41:32.714Z,78.60
2017-12-15T07:44:01.037Z,78.40
2017-12-15T07:46:28.527Z,78.40
2017-12-15T07:48:56.869Z,78.30
2017-12-15T07:51:24.420Z,77.80
2017-12-15T07:53:51.927Z,77.00
2017-12-15T07:56:20.189Z,75.40
2017-12-15T07:58:47.719Z,75.40
2017-12-15T08:01:15.233Z,74.80
2017-12-15T08:03:43.538Z,74.50
2017-12-15T08:06:11.033Z,74.40
2017-12-15T08:08:38.524Z,73.70
2017-12-15T08:11:06.046Z,74.50
2017-12-15T08:13:33.539Z,73.50
2017-12-15T08:16:01.840Z,74.00
2017-12-15T08:18:29.331Z,74.00
2017-12-15T08:20:56.878Z,73.60
2017-12-15T08:23:24.377Z,73.40
2017-12-15T08:25:52.638Z,72.70
2017-12-15T08:28:20.222Z,72.60
2017-12-15T08:30:48.493Z,72.90
2017-12-15T08:33:16.799Z,72.20
2017-12-15T08:35:44.299Z,72.30
2017-12-15T08:38:11.788Z,71.60
2017-12-15T08:40:39.312Z,72.10
2017-12-15T08:43:06.810Z,71.30
2017-12-15T08:45:34.332Z,71.80
2017-12-15T08:48:01.823Z,72.40
2017-12-15T08:50:29.337Z,71.80
2017-12-15T08:52:56.832Z,72.10
2017-12-15T08:55:24.329Z,71.50
2017-12-15T08:57:51.844Z,71.50
2017-12-15T09:00:19.346Z,71.10
2017-12-15T09:02:46.872Z,70.00
2017-12-15T09:05:14.369Z,70.70
2017-12-15T09:07:41.883Z,70.50
2017-12-15T09:10:09.408Z,70.60
2017-12-15T09:12:36.904Z,69.40
2017-12-15T09:15:04.417Z,70.40
2017-12-15T09:17:32.705Z,68.90
2017-12-15T09:20:00.236Z,68.90
2017-12-15T09:22:27.787Z,67.60
2017-12-15T09:24:55.301Z,67.60
2017-12-15T09:27:22.818Z,68.10
2017-12-15T09:29:50.332Z,68.20
2017-12-15T09:32:17.858Z,68.10
2017-12-15T09:34:45.400Z,68.30
2017-12-15T09:37:12.912Z,67.60
2017-12-15T09:39:40.420Z,67.90
2017-12-15T09:42:07.981Z,68.00
2017-12-15T09:44:36.232Z,67.80
2017-12-15T09:47:03.754Z,67.70
2017-12-15T09:49:31.276Z,67.50
2017-12-15T09:51:59.529Z,66.60
2017-12-15T09:54:27.813Z,65.60
2017-12-15T09:56:55.356Z,65.60
2017-12-15T09:59:22.865Z,65.50
2017-12-15T10:01:50.397Z,64.70
2017-12-15T10:04:18.659Z,63.10
2017-12-15T10:06:46.181Z,63.00
2017-12-15T10:09:13.722Z,62.40
2017-12-15T10:11:41.232Z,62.50
2017-12-15T10:14:08.740Z,62.60
2017-12-15T10:16:36.255Z,62.10
2017-12-15T10:19:03.786Z,62.10
2017-12-15T10:21:31.292Z,61.40
2017-12-15T10:23:58.789Z,62.40
2017-12-15T10:26:26.341Z,62.70
2017-12-15T10:28:53.833Z,62.30
2017-12-15T10:31:21.321Z,63.30
2017-12-15T10:33:49.602Z,63.10
2017-12-15T10:36:17.104Z,63.10
2017-12-15T10:38:44.622Z,63.40
2017-12-15T10:41:12.121Z,63.50
2017-12-15T10:43:39.665Z,63.30
2017-12-15T10:46:07.164Z,63.60
2017-12-15T10:48:35.446Z,63.90
2017-12-15T10:51:03.735Z,63.50
2017-12-15T10:53:32.009Z,63.90
2017-12-15T10:55:59.588Z,63.90
2017-12-15T10:58:27.086Z,64.20
2017-12-15T11:00:56.096Z,63.50
2017-12-15T11:03:23.636Z,63.50
2017-12-15T11:05:51.132Z,63.70
2017-12-15T11:08:18.651Z,63.60
2017-12-15T11:10:46.165Z,63.60
2017-12-15T11:13:13.774Z,63.20
2017-12-15T11:15:41.299Z,62.80
2017-12-15T11:18:08.797Z,63.80
2017-12-15T11:20:36.318Z,63.50
2017-12-15T11:23:03.808Z,63.40
2017-12-15T11:25:31.300Z,62.80
2017-12-15T11:27:58.829Z,62.00
2017-12-15T11:30:27.112Z,59.80
2017-12-15T11:32:55.414Z,61.20
2017-12-15T11:35:22.930Z,61.10
2017-12-15T11:37:50.423Z,61.10
2017-12-15T11:40:17.964Z,61.20
2017-12-15T11:42:45.475Z,60.90
2017-12-15T11:45:12.989Z,61.20
2017-12-15T11:47:41.245Z,60.90
2017-12-15T11:50:08.792Z,60.90
2017-12-15T11:52:36.296Z,61.30
2017-12-15T11:55:03.839Z,61.90
2017-12-15T11:57:31.349Z,61.20
2017-12-15T11:59:58.857Z,62.00
2017-12-15T12:02:26.378Z,61.70
2017-12-15T12:04:53.874Z,61.60
2017-12-15T12:07:21.396Z,61.30
2017-12-15T12:09:50.400Z,61.80
2017-12-15T12:12:18.698Z,61.20
2017-12-15T12:14:46.196Z,61.10
2017-12-15T12:17:13.726Z,61.60
2017-12-15T12:19:41.262Z,61.70
2017-12-15T12:22:09.527Z,59.40
2017-12-15T12:24:37.792Z,59.60
2017-12-15T12:27:05.323Z,59.40
2017-12-15T12:29:32.859Z,60.10
2017-12-15T12:32:00.352Z,59.60
2017-12-15T12:34:27.889Z,59.40
2017-12-15T12:36:55.387Z,59.50
2017-12-15T12:39:23.656Z,59.60
2017-12-15T12:41:51.172Z,59.60
2017-12-15T12:44:18.665Z,59.40
2017-12-15T12:46:46.189Z,59.90
2017-12-15T12:49:13.684Z,60.20
2017-12-15T12:51:41.204Z,60.90
2017-12-15T12:54:08.709Z,61.20
2017-12-15T12:56:36.972Z,62.50
2017-12-15T12:59:05.286Z,63.40
2017-12-15T13:01:32.824Z,63.30
2017-12-15T13:04:01.123Z,63.80
2017-12-15T13:06:28.634Z,63.80
2017-12-15T13:08:56.138Z,64.20
2017-12-15T13:11:23.666Z,64.60
2017-12-15T13:13:51.935Z,64.90
2017-12-15T13:16:20.232Z,64.80
2017-12-15T13:18:47.725Z,64.80
2017-12-15T13:21:15.228Z,64.90
2017-12-15T13:23:43.520Z,64.70
2017-12-15T13:26:11.041Z,64.60
2017-12-15T13:28:38.564Z,64.60
2017-12-15T13:31:06.060Z,64.50
2017-12-15T13:33:33.600Z,64.60
2017-12-15T13:36:01.156Z,64.60
2017-12-15T13:38:28.645Z,64.50
2017-12-15T13:40:56.172Z,64.40
2017-12-15T13:43:23.668Z,63.80
2017-12-15T13:45:51.275Z,63.20
2017-12-15T13:48:18.812Z,63.00
2017-12-15T13:50:46.305Z,62.80
2017-12-15T13:53:13.839Z,63.50
2017-12-15T13:55:41.374Z,64.10
2017-12-15T13:58:08.908Z,64.90
2017-12-15T14:00:37.165Z,66.50
2017-12-15T14:03:04.692Z,66.40
2017-12-15T14:05:32.186Z,67.50
2017-12-15T14:07:59.676Z,68.70
2017-12-15T14:10:27.192Z,69.70
2017-12-15T14:12:54.683Z,70.20
2017-12-15T14:15:22.980Z,70.60
2017-12-15T14:17:50.481Z,70.60
2017-12-15T14:20:18.788Z,71.00
2017-12-15T14:22:47.058Z,71.20
2017-12-15T14:25:15.337Z,70.90
2017-12-15T14:27:43.624Z,71.00
2017-12-15T14:30:11.151Z,71.00
2017-12-15T14:32:38.679Z,70.50
2017-12-15T14:35:06.188Z,70.60
2017-12-15T14:37:34.503Z,70.90
2017-12-15T14:40:01.998Z,70.80
2017-12-15T14:42:29.546Z,70.80
2017-12-15T14:44:57.076Z,70.50
2017-12-15T14:47:24.585Z,70.40
2017-12-15T14:49:52.868Z,70.20
2017-12-15T14:52:21.152Z,70.10
2017-12-15T14:54:48.667Z,70.10
2017-12-15T14:57:16.190Z,69.70
2017-12-15T14:59:43.692Z,69.90
2017-12-15T15:02:11.184Z,69.70
2017-12-15T15:04:38.698Z,69.80
2017-12-15T15:07:06.200Z,69.40
2017-12-15T15:09:33.740Z,68.80
2017-12-15T15:12:01.997Z,68.30
2017-12-15T15:14:29.490Z,68.20
2017-12-15T15:16:57.018Z,68.40
2017-12-15T15:19:24.516Z,68.40
2017-12-15T15:21:52.045Z,67.50
2017-12-15T15:24:20.326Z,69.30
2017-12-15T15:26:48.637Z,68.30
2017-12-15T15:29:16.164Z,68.10
2017-12-15T15:31:44.431Z,68.90
2017-12-15T15:34:12.736Z,69.00
2017-12-15T15:36:40.254Z,68.90
2017-12-15T15:39:07.822Z,68.80
2017-12-15T15:41:36.093Z,68.10
2017-12-15T15:44:04.353Z,67.70
2017-12-15T15:46:31.886Z,67.30
2017-12-15T15:48:59.406Z,67.50
2017-12-15T15:51:26.965Z,67.30
2017-12-15T15:53:54.460Z,67.30
2017-12-15T15:56:22.013Z,67.40
2017-12-15T15:58:49.522Z,67.10
2017-12-15T16:01:17.098Z,67.00
2017-12-15T16:03:44.585Z,67.30
2017-12-15T16:06:12.081Z,67.50
2017-12-15T16:08:39.628Z,67.10
2017-12-15T16:11:07.121Z,67.10
2017-12-15T16:13:34.662Z,67.50
2017-12-15T16:16:02.923Z,67.10
2017-12-15T16:18:30.426Z,67.10
2017-12-15T16:20:57.944Z,67.90
2017-12-15T16:23:25.454Z,67.20
2017-12-15T16:25:53.013Z,68.30
2017-12-15T16:28:20.512Z,67.50
2017-12-15T16:30:48.012Z,67.60
2017-12-15T16:33:15.571Z,68.80
2017-12-15T16:35:43.075Z,68.10
2017-12-15T16:38:10.618Z,68.40
2017-12-15T16:40:38.133Z,68.80
2017-12-15T16:43:05.649Z,69.00
2017-12-15T16:45:33.193Z,69.30
2017-12-15T16:48:00.692Z,69.60
2017-12-15T16:50:28.209Z,69.80
2017-12-15T16:52:55.750Z,70.10
2017-12-15T16:55:23.270Z,71.20
2017-12-15T16:57:51.556Z,70.40
2017-12-15T17:00:19.078Z,70.40
2017-12-15T17:02:46.628Z,70.70
2017-12-15T17:05:14.137Z,70.70
2017-12-15T17:07:41.692Z,70.80
2017-12-15T17:10:09.218Z,70.80
2017-12-15T17:12:36.919Z,70.80
2017-12-15T17:15:04.475Z,71.00
2017-12-15T17:17:31.989Z,70.90
2017-12-15T17:19:59.529Z,70.90
2017-12-15T17:22:27.871Z,70.70
2017-12-15T17:24:55.386Z,70.70
2017-12-15T17:27:22.949Z,70.60
2017-12-15T17:29:51.253Z,70.50
2017-12-15T17:32:18.789Z,70.20
2017-12-15T17:34:47.094Z,70.00
2017-12-15T17:37:14.617Z,70.00
2017-12-15T17:39:42.925Z,70.30
2017-12-15T17:42:10.425Z,69.90
2017-12-15T17:44:37.975Z,70.10
2017-12-15T17:47:05.506Z,70.20
2017-12-15T17:49:33.009Z,70.40
2017-12-15T17:52:00.574Z,70.50
2017-12-15T17:54:28.082Z,71.00
2017-12-15T17:56:55.636Z,71.20
2017-12-15T17:59:23.154Z,71.20
2017-12-15T18:01:51.473Z,70.50
2017-12-15T18:04:18.969Z,71.30
2017-12-15T18:06:46.517Z,71.10
2017-12-15T18:09:14.005Z,71.00
2017-12-15T18:11:42.290Z,71.40
2017-12-15T18:14:10.587Z,71.20
2017-12-15T18:16:38.143Z,71.30
2017-12-15T18:19:05.728Z,71.20
2017-12-15T18:21:33.260Z,71.10
2017-12-15T18:24:00.780Z,71.10
2017-12-15T18:26:28.313Z,70.60
2017-12-15T18:28:55.845Z,70.40
2017-12-15T18:31:23.359Z,69.70
2017-12-15T18:33:50.892Z,69.80
2017-12-15T18:36:18.425Z,69.80
2017-12-15T18:38:45.956Z,69.50
2017-12-15T18:41:13.460Z,69.80
2017-12-15T18:43:41.001Z,69.90
2017-12-15T18:46:08.518Z,70.00
2017-12-15T18:48:36.824Z,70.70
2017-12-15T18:51:04.396Z,70.50
2017-12-15T18:53:31.909Z,71.20
2017-12-15T18:56:00.213Z,71.60
2017-12-15T18:58:27.733Z,72.40
2017-12-15T19:00:56.062Z,72.30
2017-12-15T19:03:23.577Z,72.20
2017-12-15T19:05:51.857Z,72.20
2017-12-15T19:08:20.170Z,72.20
2017-12-15T19:10:47.680Z,72.20
2017-12-15T19:13:15.975Z,72.60
2017-12-15T19:15:43.485Z,72.50
2017-12-15T19:18:11.040Z,73.00
2017-12-15T19:20:38.560Z,73.20
2017-12-15T19:23:06.084Z,73.60
2017-12-15T19:25:34.396Z,74.10
2017-12-15T19:28:01.913Z,74.10
2017-12-15T19:30:29.455Z,74.50
2017-12-15T19:32:56.962Z,74.80
2017-12-15T19:35:24.514Z,74.90
2017-12-15T19:37:52.061Z,75.10
2017-12-15T19:40:20.327Z,75.10
2017-12-15T19:42:48.640Z,75.30
2017-12-15T19:45:16.162Z,75.20
2017-12-15T19:47:44.427Z,75.20
2017-12-15T19:50:11.967Z,75.20
2017-12-15T19:52:39.533Z,75.60
2017-12-15T19:55:07.078Z,75.90
2017-12-15T19:57:34.852Z,76.30
2017-12-15T20:00:02.412Z,76.50
2017-12-15T20:02:29.964Z,76.40
2017-12-15T20:04:57.497Z,76.20
2017-12-15T20:07:25.052Z,76.30
2017-12-15T20:09:52.566Z,76.50
2017-12-15T20:12:20.846Z,76.50
2017-12-15T20:14:49.150Z,76.60
2017-12-15T20:17:16.662Z,76.60
2017-12-15T20:19:44.184Z,76.80
2017-12-15T20:22:11.703Z,77.20
2017-12-15T20:24:39.218Z,77.40
2017-12-15T20:27:06.764Z,77.40
2017-12-15T20:29:34.283Z,77.50
2017-12-15T20:32:01.863Z,77.80
2017-12-15T20:34:29.370Z,77.70
2017-12-15T20:36:57.657Z,77.70
2017-12-15T20:39:25.933Z,77.70
2017-12-15T20:41:54.241Z,77.60
2017-12-15T20:44:21.766Z,77.60
2017-12-15T20:46:50.053Z,77.20
2017-12-15T20:49:18.368Z,77.20
2017-12-15T20:51:45.876Z,77.20
2017-12-15T20:54:14.153Z,77.40
2017-12-15T20:56:42.445Z,77.50
2017-12-15T20:59:09.955Z,77.50
2017-12-15T21:01:37.517Z,77.80
2017-12-15T21:04:05.059Z,78.00
2017-12-15T21:06:32.628Z,77.90
2017-12-15T21:09:00.931Z,78.10
2017-12-15T21:11:29.193Z,78.10
2017-12-15T21:13:57.521Z,78.40
2017-12-15T21:16:25.051Z,78.20
2017-12-15T21:18:53.371Z,78.30
2017-12-15T21:21:20.929Z,78.30
2017-12-15T21:23:48.455Z,78.40
2017-12-15T21:26:15.952Z,78.60
2017-12-15T21:28:43.472Z,78.50
2017-12-15T21:31:10.992Z,78.20
2017-12-15T21:33:39.289Z,77.70
2017-12-15T21:36:07.591Z,77.40
2017-12-15T21:38:35.142Z,77.30
2017-12-15T21:41:02.692Z,77.30
2017-12-15T21:43:30.244Z,77.50
2017-12-15T21:45:57.788Z,77.40
2017-12-15T21:48:26.103Z,77.50
2017-12-15T21:50:53.601Z,77.50
2017-12-15T21:53:21.255Z,77.60
2017-12-15T21:55:48.796Z,77.60
2017-12-15T21:58:16.296Z,77.40
2017-12-15T22:00:44.600Z,77.50
2017-12-15T22:03:12.135Z,77.40
2017-12-15T22:05:40.450Z,77.60
2017-12-15T22:08:08.001Z,77.50
2017-12-15T22:10:35.521Z,77.50
2017-12-15T22:13:03.872Z,77.50
2017-12-15T22:15:31.407Z,77.40
2017-12-15T22:17:58.945Z,78.00
2017-12-15T22:20:26.725Z,76.90
2017-12-15T22:22:54.264Z,76.90
2017-12-15T22:25:21.841Z,76.70
2017-12-15T22:27:49.349Z,76.70
2017-12-15T22:30:17.630Z,76.60
2017-12-15T22:32:45.966Z,76.50
2017-12-15T22:35:13.482Z,76.50
2017-12-15T22:37:41.015Z,76.20
2017-12-15T22:40:08.515Z,76.20
2017-12-15T22:42:36.017Z,76.10
2017-12-15T22:45:03.544Z,76.20
2017-12-15T22:47:31.047Z,76.20
2017-12-15T22:49:59.307Z,76.00
2017-12-15T22:52:28.346Z,75.60
2017-12-15T22:54:55.851Z,75.60
2017-12-15T22:57:23.357Z,75.50
2017-12-15T22:59:50.875Z,75.40
2017-12-15T23:02:19.193Z,75.40
2017-12-15T23:04:46.693Z,75.40
2017-12-15T23:07:14.236Z,75.60
2017-12-15T23:09:41.734Z,75.60
2017-12-15T23:12:10.045Z,76.30
2017-12-15T23:14:38.124Z,76.10
2017-12-15T23:17:05.653Z,76.20
2017-12-15T23:19:33.972Z,76.40
2017-12-15T23:22:01.509Z,76.30
2017-12-15T23:24:29.021Z,76.30
2017-12-15T23:26:56.617Z,76.30
2017-12-15T23:29:24.148Z,76.30
2017-12-15T23:31:52.479Z,76.50
2017-12-15T23:34:19.966Z,76.30
2017-12-15T23:36:47.524Z,76.40
2017-12-15T23:39:15.012Z,76.50
2017-12-15T23:41:43.263Z,76.60
2017-12-15T23:44:11.570Z,76.60
2017-12-15T23:46:39.070Z,76.60
2017-12-15T23:49:06.600Z,76.90
2017-12-15T23:51:34.099Z,77.10
2017-12-15T23:54:01.636Z,77.20
2017-12-15T23:56:40.984Z,76.90
2017-12-15T23:59:08.531Z,76.70
